sensor_id;sensor_type;location;lat;lon;timestamp;temperature;humidity
5344;DHT22;2694;48.954;8.928;2023-05-07T00:01:42;12.80;99.90
5344;DHT22;2694;48.954;8.928;2023-05-07T00:04:10;12.80;99.90
5344;DHT22;2694;48.954;8.928;2023-05-07T00:06:38;12.70;99.90
5344;DHT22;2694;48.954;8.928;2023-05-07T00:09:06;12.70;99.90
5344;DHT22;2694;48.954;8.928;2023-05-07T00:11:33;12.70;99.90
5344;DHT22;2694;48.954;8.928;2023-05-07T00:14:00;12.80;99.90
5344;DHT22;2694;48.954;8.928;2023-05-07T00:16:27;12.80;99.90
5344;DHT22;2694;48.954;8.928;2023-05-07T00:18:54;12.80;99.90
5344;DHT22;2694;48.954;8.928;2023-05-07T00:21:23;12.90;99.90
5344;DHT22;2694;48.954;8.928;2023-05-07T00:23:52;12.90;99.90
5344;DHT22;2694;48.954;8.928;2023-05-07T00:26:19;13.00;99.90
5344;DHT22;2694;48.954;8.928;2023-05-07T00:28:46;12.50;99.90
5344;DHT22;2694;48.954;8.928;2023-05-07T00:31:13;12.90;99.90
5344;DHT22;2694;48.954;8.928;2023-05-07T00:33:40;12.90;99.90
5344;DHT22;2694;48.954;8.928;2023-05-07T00:36:07;12.80;99.90
5344;DHT22;2694;48.954;8.928;2023-05-07T00:38:36;12.80;99.90
5344;DHT22;2694;48.954;8.928;2023-05-07T00:41:03;12.80;99.90
5344;DHT22;2694;48.954;8.928;2023-05-07T00:43:30;12.80;99.90
5344;DHT22;2694;48.954;8.928;2023-05-07T00:45:57;12.80;99.90
5344;DHT22;2694;48.954;8.928;2023-05-07T00:48:25;12.90;99.90
5344;DHT22;2694;48.954;8.928;2023-05-07T00:50:52;12.90;99.90
5344;DHT22;2694;48.954;8.928;2023-05-07T00:53:19;12.90;99.90
5344;DHT22;2694;48.954;8.928;2023-05-07T00:55:48;12.90;99.90
5344;DHT22;2694;48.954;8.928;2023-05-07T00:58:16;12.90;99.90
5344;DHT22;2694;48.954;8.928;2023-05-07T01:00:43;12.80;99.90
5344;DHT22;2694;48.954;8.928;2023-05-07T01:03:10;12.90;99.90
5344;DHT22;2694;48.954;8.928;2023-05-07T01:05:37;12.90;99.90
5344;DHT22;2694;48.954;8.928;2023-05-07T01:08:05;12.80;99.90
5344;DHT22;2694;48.954;8.928;2023-05-07T01:10:32;12.80;99.90
5344;DHT22;2694;48.954;8.928;2023-05-07T01:13:01;12.80;99.90
5344;DHT22;2694;48.954;8.928;2023-05-07T01:15:28;12.80;99.90
5344;DHT22;2694;48.954;8.928;2023-05-07T01:17:55;12.80;99.90
5344;DHT22;2694;48.954;8.928;2023-05-07T01:20:23;12.70;99.90
5344;DHT22;2694;48.954;8.928;2023-05-07T01:22:52;12.30;99.90
5344;DHT22;2694;48.954;8.928;2023-05-07T01:25:20;12.70;99.90
5344;DHT22;2694;48.954;8.928;2023-05-07T01:27:47;12.70;99.90
5344;DHT22;2694;48.954;8.928;2023-05-07T01:30:14;12.70;99.90
5344;DHT22;2694;48.954;8.928;2023-05-07T01:32:44;12.60;99.90
5344;DHT22;2694;48.954;8.928;2023-05-07T01:35:21;12.60;99.90
5344;DHT22;2694;48.954;8.928;2023-05-07T01:37:49;12.60;99.90
5344;DHT22;2694;48.954;8.928;2023-05-07T01:40:18;12.60;99.90
5344;DHT22;2694;48.954;8.928;2023-05-07T01:42:46;12.50;99.90
5344;DHT22;2694;48.954;8.928;2023-05-07T01:45:13;12.50;99.90
5344;DHT22;2694;48.954;8.928;2023-05-07T01:47:41;12.50;99.90
5344;DHT22;2694;48.954;8.928;2023-05-07T01:50:09;12.50;99.90
5344;DHT22;2694;48.954;8.928;2023-05-07T01:52:37;12.50;99.90
5344;DHT22;2694;48.954;8.928;2023-05-07T01:55:05;12.60;99.90
5344;DHT22;2694;48.954;8.928;2023-05-07T01:57:34;12.70;99.90
5344;DHT22;2694;48.954;8.928;2023-05-07T02:00:01;12.70;99.90
5344;DHT22;2694;48.954;8.928;2023-05-07T02:02:31;12.70;99.90
5344;DHT22;2694;48.954;8.928;2023-05-07T02:04:59;12.50;99.90
5344;DHT22;2694;48.954;8.928;2023-05-07T02:07:27;12.50;99.90
5344;DHT22;2694;48.954;8.928;2023-05-07T02:09:54;12.50;99.90
5344;DHT22;2694;48.954;8.928;2023-05-07T02:12:21;12.60;99.90
5344;DHT22;2694;48.954;8.928;2023-05-07T02:14:50;12.60;99.90
5344;DHT22;2694;48.954;8.928;2023-05-07T02:17:17;12.50;99.90
5344;DHT22;2694;48.954;8.928;2023-05-07T02:19:44;12.50;99.90
5344;DHT22;2694;48.954;8.928;2023-05-07T02:22:11;12.40;99.90
5344;DHT22;2694;48.954;8.928;2023-05-07T02:24:38;12.40;99.90
5344;DHT22;2694;48.954;8.928;2023-05-07T02:27:05;12.40;99.90
5344;DHT22;2694;48.954;8.928;2023-05-07T02:29:32;12.40;99.90
5344;DHT22;2694;48.954;8.928;2023-05-07T02:32:00;12.30;99.90
5344;DHT22;2694;48.954;8.928;2023-05-07T02:34:27;12.30;99.90
5344;DHT22;2694;48.954;8.928;2023-05-07T02:36:54;12.20;99.90
5344;DHT22;2694;48.954;8.928;2023-05-07T02:39:21;12.10;99.90
5344;DHT22;2694;48.954;8.928;2023-05-07T02:41:48;12.10;99.90
5344;DHT22;2694;48.954;8.928;2023-05-07T02:44:15;12.00;99.90
5344;DHT22;2694;48.954;8.928;2023-05-07T02:46:42;12.00;99.90
5344;DHT22;2694;48.954;8.928;2023-05-07T02:49:11;12.00;99.90
5344;DHT22;2694;48.954;8.928;2023-05-07T02:51:38;11.90;99.90
5344;DHT22;2694;48.954;8.928;2023-05-07T02:54:05;12.00;99.90
5344;DHT22;2694;48.954;8.928;2023-05-07T02:56:32;12.00;99.90
5344;DHT22;2694;48.954;8.928;2023-05-07T02:58:59;12.00;99.90
5344;DHT22;2694;48.954;8.928;2023-05-07T03:01:26;12.00;99.90
5344;DHT22;2694;48.954;8.928;2023-05-07T03:03:53;12.00;99.90
5344;DHT22;2694;48.954;8.928;2023-05-07T03:06:22;11.90;99.90
5344;DHT22;2694;48.954;8.928;2023-05-07T03:08:48;11.80;99.90
5344;DHT22;2694;48.954;8.928;2023-05-07T03:11:15;11.80;99.90
5344;DHT22;2694;48.954;8.928;2023-05-07T03:13:42;11.70;99.90
5344;DHT22;2694;48.954;8.928;2023-05-07T03:16:09;11.80;99.90
5344;DHT22;2694;48.954;8.928;2023-05-07T03:18:36;11.80;99.90
5344;DHT22;2694;48.954;8.928;2023-05-07T03:21:03;11.80;99.90
5344;DHT22;2694;48.954;8.928;2023-05-07T03:23:32;11.70;99.90
5344;DHT22;2694;48.954;8.928;2023-05-07T03:25:59;11.70;99.90
5344;DHT22;2694;48.954;8.928;2023-05-07T03:28:26;11.60;99.90
5344;DHT22;2694;48.954;8.928;2023-05-07T03:30:53;11.60;99.90
5344;DHT22;2694;48.954;8.928;2023-05-07T03:33:20;11.60;99.90
5344;DHT22;2694;48.954;8.928;2023-05-07T03:35:47;11.60;99.90
5344;DHT22;2694;48.954;8.928;2023-05-07T03:38:14;11.50;99.90
5344;DHT22;2694;48.954;8.928;2023-05-07T03:40:42;11.50;99.90
5344;DHT22;2694;48.954;8.928;2023-05-07T03:43:09;11.50;99.90
5344;DHT22;2694;48.954;8.928;2023-05-07T03:45:36;11.50;99.90
5344;DHT22;2694;48.954;8.928;2023-05-07T03:48:04;11.50;99.90
5344;DHT22;2694;48.954;8.928;2023-05-07T03:50:31;11.50;99.90
5344;DHT22;2694;48.954;8.928;2023-05-07T03:52:58;11.50;99.90
5344;DHT22;2694;48.954;8.928;2023-05-07T03:55:25;11.40;99.90
5344;DHT22;2694;48.954;8.928;2023-05-07T03:57:53;11.40;99.90
5344;DHT22;2694;48.954;8.928;2023-05-07T04:00:22;11.40;99.90
5344;DHT22;2694;48.954;8.928;2023-05-07T04:02:49;11.40;99.90
5344;DHT22;2694;48.954;8.928;2023-05-07T04:05:16;11.50;99.90
5344;DHT22;2694;48.954;8.928;2023-05-07T04:07:43;11.50;99.90
5344;DHT22;2694;48.954;8.928;2023-05-07T04:10:10;11.50;99.90
5344;DHT22;2694;48.954;8.928;2023-05-07T04:12:37;11.60;99.90
5344;DHT22;2694;48.954;8.928;2023-05-07T04:15:06;11.70;99.90
5344;DHT22;2694;48.954;8.928;2023-05-07T04:17:33;11.70;99.90
5344;DHT22;2694;48.954;8.928;2023-05-07T04:20:03;11.80;99.90
5344;DHT22;2694;48.954;8.928;2023-05-07T04:22:32;11.90;99.90
5344;DHT22;2694;48.954;8.928;2023-05-07T04:25:00;11.90;99.90
5344;DHT22;2694;48.954;8.928;2023-05-07T04:27:27;11.90;99.90
5344;DHT22;2694;48.954;8.928;2023-05-07T04:29:55;11.90;99.90
5344;DHT22;2694;48.954;8.928;2023-05-07T04:32:23;11.90;99.90
5344;DHT22;2694;48.954;8.928;2023-05-07T04:34:51;11.90;99.90
5344;DHT22;2694;48.954;8.928;2023-05-07T04:37:18;12.00;99.90
5344;DHT22;2694;48.954;8.928;2023-05-07T04:39:45;12.10;99.90
5344;DHT22;2694;48.954;8.928;2023-05-07T04:42:14;12.20;99.90
5344;DHT22;2694;48.954;8.928;2023-05-07T04:44:43;12.10;99.90
5344;DHT22;2694;48.954;8.928;2023-05-07T04:47:10;12.20;99.90
5344;DHT22;2694;48.954;8.928;2023-05-07T04:49:38;12.10;99.90
5344;DHT22;2694;48.954;8.928;2023-05-07T04:52:05;12.20;99.90
5344;DHT22;2694;48.954;8.928;2023-05-07T04:54:32;12.30;99.90
5344;DHT22;2694;48.954;8.928;2023-05-07T04:56:59;12.30;99.90
5344;DHT22;2694;48.954;8.928;2023-05-07T04:59:26;12.30;99.90
5344;DHT22;2694;48.954;8.928;2023-05-07T05:01:53;12.50;99.90
5344;DHT22;2694;48.954;8.928;2023-05-07T05:04:20;12.60;99.90
5344;DHT22;2694;48.954;8.928;2023-05-07T05:06:49;12.80;99.90
5344;DHT22;2694;48.954;8.928;2023-05-07T05:09:16;13.00;99.90
5344;DHT22;2694;48.954;8.928;2023-05-07T05:11:43;13.10;99.90
5344;DHT22;2694;48.954;8.928;2023-05-07T05:14:10;13.00;99.90
5344;DHT22;2694;48.954;8.928;2023-05-07T05:16:37;13.10;99.90
5344;DHT22;2694;48.954;8.928;2023-05-07T05:19:04;13.00;99.90
5344;DHT22;2694;48.954;8.928;2023-05-07T05:21:32;13.10;99.90
5344;DHT22;2694;48.954;8.928;2023-05-07T05:24:00;13.20;99.90
5344;DHT22;2694;48.954;8.928;2023-05-07T05:26:27;13.30;99.90
5344;DHT22;2694;48.954;8.928;2023-05-07T05:28:54;13.40;99.90
5344;DHT22;2694;48.954;8.928;2023-05-07T05:31:21;13.50;99.90
5344;DHT22;2694;48.954;8.928;2023-05-07T05:33:48;13.60;99.90
5344;DHT22;2694;48.954;8.928;2023-05-07T05:36:16;13.80;99.90
5344;DHT22;2694;48.954;8.928;2023-05-07T05:38:43;14.00;99.90
5344;DHT22;2694;48.954;8.928;2023-05-07T05:41:12;14.20;99.90
5344;DHT22;2694;48.954;8.928;2023-05-07T05:43:39;14.50;99.90
5344;DHT22;2694;48.954;8.928;2023-05-07T05:46:05;14.50;99.90
5344;DHT22;2694;48.954;8.928;2023-05-07T05:48:34;14.70;99.90
5344;DHT22;2694;48.954;8.928;2023-05-07T05:51:01;14.90;99.90
5344;DHT22;2694;48.954;8.928;2023-05-07T05:53:28;15.20;99.90
5344;DHT22;2694;48.954;8.928;2023-05-07T05:55:55;15.10;99.90
5344;DHT22;2694;48.954;8.928;2023-05-07T05:58:23;15.30;99.90
5344;DHT22;2694;48.954;8.928;2023-05-07T06:00:50;15.50;99.90
5344;DHT22;2694;48.954;8.928;2023-05-07T06:03:18;15.60;99.90
5344;DHT22;2694;48.954;8.928;2023-05-07T06:05:45;15.80;99.90
5344;DHT22;2694;48.954;8.928;2023-05-07T06:08:13;16.00;99.90
5344;DHT22;2694;48.954;8.928;2023-05-07T06:10:40;16.00;99.90
5344;DHT22;2694;48.954;8.928;2023-05-07T06:13:07;15.70;99.90
5344;DHT22;2694;48.954;8.928;2023-05-07T06:15:35;15.90;99.90
5344;DHT22;2694;48.954;8.928;2023-05-07T06:18:03;16.30;99.90
5344;DHT22;2694;48.954;8.928;2023-05-07T06:20:30;16.70;99.90
5344;DHT22;2694;48.954;8.928;2023-05-07T06:22:58;16.90;99.90
5344;DHT22;2694;48.954;8.928;2023-05-07T06:25:25;17.20;99.90
5344;DHT22;2694;48.954;8.928;2023-05-07T06:27:52;17.30;99.90
5344;DHT22;2694;48.954;8.928;2023-05-07T06:30:19;17.10;99.90
5344;DHT22;2694;48.954;8.928;2023-05-07T06:32:47;16.90;99.90
5344;DHT22;2694;48.954;8.928;2023-05-07T06:35:14;17.10;99.90
5344;DHT22;2694;48.954;8.928;2023-05-07T06:37:42;17.20;99.90
5344;DHT22;2694;48.954;8.928;2023-05-07T06:40:10;17.10;99.90
5344;DHT22;2694;48.954;8.928;2023-05-07T06:42:37;17.10;99.90
5344;DHT22;2694;48.954;8.928;2023-05-07T06:45:08;16.90;99.90
5344;DHT22;2694;48.954;8.928;2023-05-07T06:47:35;17.00;99.90
5344;DHT22;2694;48.954;8.928;2023-05-07T06:50:05;17.10;99.90
5344;DHT22;2694;48.954;8.928;2023-05-07T06:52:32;17.30;99.90
5344;DHT22;2694;48.954;8.928;2023-05-07T06:55:00;17.40;99.90
5344;DHT22;2694;48.954;8.928;2023-05-07T06:57:27;17.60;99.90
5344;DHT22;2694;48.954;8.928;2023-05-07T06:59:54;17.60;99.90
5344;DHT22;2694;48.954;8.928;2023-05-07T07:02:21;17.80;99.90
5344;DHT22;2694;48.954;8.928;2023-05-07T07:04:48;17.80;99.90
5344;DHT22;2694;48.954;8.928;2023-05-07T07:07:16;17.60;99.90
5344;DHT22;2694;48.954;8.928;2023-05-07T07:09:44;17.50;99.90
5344;DHT22;2694;48.954;8.928;2023-05-07T07:12:11;17.80;99.90
5344;DHT22;2694;48.954;8.928;2023-05-07T07:14:39;17.80;99.90
5344;DHT22;2694;48.954;8.928;2023-05-07T07:17:06;17.90;99.90
5344;DHT22;2694;48.954;8.928;2023-05-07T07:19:33;17.90;99.90
5344;DHT22;2694;48.954;8.928;2023-05-07T07:22:00;18.10;99.90
5344;DHT22;2694;48.954;8.928;2023-05-07T07:24:29;18.40;99.90
5344;DHT22;2694;48.954;8.928;2023-05-07T07:26:56;18.60;99.90
5344;DHT22;2694;48.954;8.928;2023-05-07T07:29:23;18.70;99.90
5344;DHT22;2694;48.954;8.928;2023-05-07T07:31:52;18.80;99.90
5344;DHT22;2694;48.954;8.928;2023-05-07T07:34:19;18.60;99.90
5344;DHT22;2694;48.954;8.928;2023-05-07T07:36:46;18.40;99.90
5344;DHT22;2694;48.954;8.928;2023-05-07T07:39:13;18.10;99.90
5344;DHT22;2694;48.954;8.928;2023-05-07T07:41:41;18.10;99.90
5344;DHT22;2694;48.954;8.928;2023-05-07T07:44:08;18.00;99.90
5344;DHT22;2694;48.954;8.928;2023-05-07T07:46:38;17.90;99.90
5344;DHT22;2694;48.954;8.928;2023-05-07T07:49:05;18.00;99.90
5344;DHT22;2694;48.954;8.928;2023-05-07T07:51:32;18.00;99.90
5344;DHT22;2694;48.954;8.928;2023-05-07T07:53:59;18.10;99.90
5344;DHT22;2694;48.954;8.928;2023-05-07T07:56:27;18.30;99.90
5344;DHT22;2694;48.954;8.928;2023-05-07T07:58:56;18.60;99.90
5344;DHT22;2694;48.954;8.928;2023-05-07T08:01:23;18.70;99.90
5344;DHT22;2694;48.954;8.928;2023-05-07T08:03:50;18.90;99.90
5344;DHT22;2694;48.954;8.928;2023-05-07T08:06:17;19.00;99.90
5344;DHT22;2694;48.954;8.928;2023-05-07T08:08:44;19.10;99.90
5344;DHT22;2694;48.954;8.928;2023-05-07T08:11:11;19.30;99.90
5344;DHT22;2694;48.954;8.928;2023-05-07T08:13:38;19.20;99.90
5344;DHT22;2694;48.954;8.928;2023-05-07T08:16:07;19.10;99.90
5344;DHT22;2694;48.954;8.928;2023-05-07T08:18:34;19.20;99.90
5344;DHT22;2694;48.954;8.928;2023-05-07T08:21:01;19.10;99.90
5344;DHT22;2694;48.954;8.928;2023-05-07T08:23:28;19.20;99.90
5344;DHT22;2694;48.954;8.928;2023-05-07T08:25:56;19.30;99.90
5344;DHT22;2694;48.954;8.928;2023-05-07T08:28:23;19.40;99.90
5344;DHT22;2694;48.954;8.928;2023-05-07T08:30:50;19.60;99.90
5344;DHT22;2694;48.954;8.928;2023-05-07T08:33:19;19.70;99.90
5344;DHT22;2694;48.954;8.928;2023-05-07T08:35:46;19.90;99.90
5344;DHT22;2694;48.954;8.928;2023-05-07T08:38:13;20.00;99.90
5344;DHT22;2694;48.954;8.928;2023-05-07T08:40:40;20.20;99.90
5344;DHT22;2694;48.954;8.928;2023-05-07T08:43:07;20.20;99.90
5344;DHT22;2694;48.954;8.928;2023-05-07T08:45:35;20.30;99.90
5344;DHT22;2694;48.954;8.928;2023-05-07T08:48:03;20.70;99.90
5344;DHT22;2694;48.954;8.928;2023-05-07T08:50:35;21.10;99.90
5344;DHT22;2694;48.954;8.928;2023-05-07T08:53:03;21.20;99.90
5344;DHT22;2694;48.954;8.928;2023-05-07T08:55:31;21.00;99.90
5344;DHT22;2694;48.954;8.928;2023-05-07T08:57:58;20.80;99.90
5344;DHT22;2694;48.954;8.928;2023-05-07T09:00:25;20.50;99.90
5344;DHT22;2694;48.954;8.928;2023-05-07T09:02:53;19.90;99.90
5344;DHT22;2694;48.954;8.928;2023-05-07T09:05:20;20.20;99.90
5344;DHT22;2694;48.954;8.928;2023-05-07T09:07:48;20.40;99.90
5344;DHT22;2694;48.954;8.928;2023-05-07T09:10:16;20.50;99.90
5344;DHT22;2694;48.954;8.928;2023-05-07T09:12:43;20.50;99.90
5344;DHT22;2694;48.954;8.928;2023-05-07T09:15:10;20.50;99.90
5344;DHT22;2694;48.954;8.928;2023-05-07T09:17:37;20.90;99.90
5344;DHT22;2694;48.954;8.928;2023-05-07T09:20:07;21.30;99.90
5344;DHT22;2694;48.954;8.928;2023-05-07T09:22:36;21.40;99.90
5344;DHT22;2694;48.954;8.928;2023-05-07T09:25:06;21.20;99.90
5344;DHT22;2694;48.954;8.928;2023-05-07T09:27:33;21.40;99.90
5344;DHT22;2694;48.954;8.928;2023-05-07T09:30:03;21.40;99.90
5344;DHT22;2694;48.954;8.928;2023-05-07T09:32:34;21.60;99.90
5344;DHT22;2694;48.954;8.928;2023-05-07T09:35:01;22.90;99.90
5344;DHT22;2694;48.954;8.928;2023-05-07T09:37:30;21.80;99.90
5344;DHT22;2694;48.954;8.928;2023-05-07T09:39:57;21.90;99.90
5344;DHT22;2694;48.954;8.928;2023-05-07T09:42:26;22.20;99.90
5344;DHT22;2694;48.954;8.928;2023-05-07T09:44:53;22.40;99.90
5344;DHT22;2694;48.954;8.928;2023-05-07T09:47:20;22.40;99.90
5344;DHT22;2694;48.954;8.928;2023-05-07T09:49:50;22.60;99.90
5344;DHT22;2694;48.954;8.928;2023-05-07T09:52:20;22.90;99.90
5344;DHT22;2694;48.954;8.928;2023-05-07T09:54:47;22.90;99.90
5344;DHT22;2694;48.954;8.928;2023-05-07T09:57:15;22.80;99.90
5344;DHT22;2694;48.954;8.928;2023-05-07T09:59:46;22.80;99.90
5344;DHT22;2694;48.954;8.928;2023-05-07T10:02:14;23.10;99.90
5344;DHT22;2694;48.954;8.928;2023-05-07T10:04:42;23.30;99.90
5344;DHT22;2694;48.954;8.928;2023-05-07T10:07:09;23.30;99.90
5344;DHT22;2694;48.954;8.928;2023-05-07T10:09:40;23.10;99.90
5344;DHT22;2694;48.954;8.928;2023-05-07T10:12:09;23.30;99.90
5344;DHT22;2694;48.954;8.928;2023-05-07T10:14:37;23.30;99.90
5344;DHT22;2694;48.954;8.928;2023-05-07T10:17:06;23.30;99.90
5344;DHT22;2694;48.954;8.928;2023-05-07T10:19:34;23.40;99.90
5344;DHT22;2694;48.954;8.928;2023-05-07T10:22:05;23.60;99.90
5344;DHT22;2694;48.954;8.928;2023-05-07T10:24:33;23.80;99.90
5344;DHT22;2694;48.954;8.928;2023-05-07T10:27:02;24.10;99.90
5344;DHT22;2694;48.954;8.928;2023-05-07T10:29:36;24.00;99.90
5344;DHT22;2694;48.954;8.928;2023-05-07T10:32:25;24.10;99.90
5344;DHT22;2694;48.954;8.928;2023-05-07T10:34:59;23.80;99.90
5344;DHT22;2694;48.954;8.928;2023-05-07T10:37:28;23.70;99.90
5344;DHT22;2694;48.954;8.928;2023-05-07T10:39:55;23.80;99.90
5344;DHT22;2694;48.954;8.928;2023-05-07T10:42:23;23.90;99.90
5344;DHT22;2694;48.954;8.928;2023-05-07T10:44:50;23.80;99.90
5344;DHT22;2694;48.954;8.928;2023-05-07T10:47:18;23.90;99.90
5344;DHT22;2694;48.954;8.928;2023-05-07T10:50:21;24.00;99.90
5344;DHT22;2694;48.954;8.928;2023-05-07T10:53:22;24.00;99.90
5344;DHT22;2694;48.954;8.928;2023-05-07T10:56:24;24.10;99.90
5344;DHT22;2694;48.954;8.928;2023-05-07T10:58:52;24.10;99.90
5344;DHT22;2694;48.954;8.928;2023-05-07T11:01:49;24.20;99.90
5344;DHT22;2694;48.954;8.928;2023-05-07T11:04:18;24.50;99.50
5344;DHT22;2694;48.954;8.928;2023-05-07T11:07:24;24.20;99.50
5344;DHT22;2694;48.954;8.928;2023-05-07T11:10:04;24.10;99.60
5344;DHT22;2694;48.954;8.928;2023-05-07T11:12:54;24.00;99.90
5344;DHT22;2694;48.954;8.928;2023-05-07T11:15:36;24.40;99.90
5344;DHT22;2694;48.954;8.928;2023-05-07T11:18:04;24.70;99.10
5344;DHT22;2694;48.954;8.928;2023-05-07T11:20:59;25.00;99.40
5344;DHT22;2694;48.954;8.928;2023-05-07T11:23:54;25.30;98.70
5344;DHT22;2694;48.954;8.928;2023-05-07T11:26:22;25.30;98.00
5344;DHT22;2694;48.954;8.928;2023-05-07T11:28:49;24.70;99.00
5344;DHT22;2694;48.954;8.928;2023-05-07T11:31:21;24.60;98.70
5344;DHT22;2694;48.954;8.928;2023-05-07T11:33:48;24.50;98.50
5344;DHT22;2694;48.954;8.928;2023-05-07T11:36:18;24.50;99.10
5344;DHT22;2694;48.954;8.928;2023-05-07T11:38:46;24.70;99.30
5344;DHT22;2694;48.954;8.928;2023-05-07T11:41:13;24.90;98.20
5344;DHT22;2694;48.954;8.928;2023-05-07T11:43:54;25.00;99.10
5344;DHT22;2694;48.954;8.928;2023-05-07T11:46:21;25.40;97.30
5344;DHT22;2694;48.954;8.928;2023-05-07T11:48:48;25.50;98.10
5344;DHT22;2694;48.954;8.928;2023-05-07T11:51:21;25.50;96.70
5344;DHT22;2694;48.954;8.928;2023-05-07T11:53:48;25.40;98.00
5344;DHT22;2694;48.954;8.928;2023-05-07T11:56:17;25.50;98.20
5344;DHT22;2694;48.954;8.928;2023-05-07T11:58:45;25.60;97.90
5344;DHT22;2694;48.954;8.928;2023-05-07T12:01:14;26.00;98.20
5344;DHT22;2694;48.954;8.928;2023-05-07T12:03:43;25.80;96.40
5344;DHT22;2694;48.954;8.928;2023-05-07T12:06:12;25.90;98.30
5344;DHT22;2694;48.954;8.928;2023-05-07T12:08:41;26.30;98.00
5344;DHT22;2694;48.954;8.928;2023-05-07T12:11:09;26.60;97.30
5344;DHT22;2694;48.954;8.928;2023-05-07T12:13:37;27.00;96.90
5344;DHT22;2694;48.954;8.928;2023-05-07T12:16:06;27.10;95.40
5344;DHT22;2694;48.954;8.928;2023-05-07T12:18:35;27.20;95.30
5344;DHT22;2694;48.954;8.928;2023-05-07T12:21:04;27.10;94.60
5344;DHT22;2694;48.954;8.928;2023-05-07T12:23:32;27.10;95.70
5344;DHT22;2694;48.954;8.928;2023-05-07T12:26:01;27.00;93.80
5344;DHT22;2694;48.954;8.928;2023-05-07T12:28:28;26.90;95.10
5344;DHT22;2694;48.954;8.928;2023-05-07T12:30:57;26.50;94.80
5344;DHT22;2694;48.954;8.928;2023-05-07T12:33:25;26.20;94.70
5344;DHT22;2694;48.954;8.928;2023-05-07T12:35:54;26.20;96.20
5344;DHT22;2694;48.954;8.928;2023-05-07T12:38:22;26.10;95.70
5344;DHT22;2694;48.954;8.928;2023-05-07T12:40:50;26.10;95.80
5344;DHT22;2694;48.954;8.928;2023-05-07T12:43:20;26.20;94.20
5344;DHT22;2694;48.954;8.928;2023-05-07T12:45:50;26.30;95.00
5344;DHT22;2694;48.954;8.928;2023-05-07T12:48:19;26.40;94.50
5344;DHT22;2694;48.954;8.928;2023-05-07T12:50:49;26.30;94.60
5344;DHT22;2694;48.954;8.928;2023-05-07T12:53:16;26.30;94.30
5344;DHT22;2694;48.954;8.928;2023-05-07T12:55:45;26.20;95.40
5344;DHT22;2694;48.954;8.928;2023-05-07T12:58:16;26.10;95.20
5344;DHT22;2694;48.954;8.928;2023-05-07T13:00:46;25.80;95.00
5344;DHT22;2694;48.954;8.928;2023-05-07T13:03:21;25.50;95.90
5344;DHT22;2694;48.954;8.928;2023-05-07T13:05:48;25.30;96.10
5344;DHT22;2694;48.954;8.928;2023-05-07T13:08:27;25.00;96.90
5344;DHT22;2694;48.954;8.928;2023-05-07T13:10:54;24.70;98.20
5344;DHT22;2694;48.954;8.928;2023-05-07T13:13:21;24.20;99.30
5344;DHT22;2694;48.954;8.928;2023-05-07T13:15:50;23.60;99.90
5344;DHT22;2694;48.954;8.928;2023-05-07T13:18:17;23.30;99.90
5344;DHT22;2694;48.954;8.928;2023-05-07T13:20:44;23.10;99.90
5344;DHT22;2694;48.954;8.928;2023-05-07T13:23:11;22.80;99.90
5344;DHT22;2694;48.954;8.928;2023-05-07T13:25:38;22.60;99.90
5344;DHT22;2694;48.954;8.928;2023-05-07T13:28:05;22.40;99.90
5344;DHT22;2694;48.954;8.928;2023-05-07T13:30:32;22.30;99.90
5344;DHT22;2694;48.954;8.928;2023-05-07T13:33:00;22.10;99.90
5344;DHT22;2694;48.954;8.928;2023-05-07T13:35:27;21.90;99.90
5344;DHT22;2694;48.954;8.928;2023-05-07T13:37:55;21.70;99.90
5344;DHT22;2694;48.954;8.928;2023-05-07T13:40:22;21.70;99.90
5344;DHT22;2694;48.954;8.928;2023-05-07T13:42:49;21.20;99.90
5344;DHT22;2694;48.954;8.928;2023-05-07T13:45:17;20.80;99.90
5344;DHT22;2694;48.954;8.928;2023-05-07T13:47:44;20.40;99.90
5344;DHT22;2694;48.954;8.928;2023-05-07T13:50:13;20.00;99.90
5344;DHT22;2694;48.954;8.928;2023-05-07T13:52:41;19.70;99.90
5344;DHT22;2694;48.954;8.928;2023-05-07T13:55:11;19.40;99.90
5344;DHT22;2694;48.954;8.928;2023-05-07T13:57:38;19.10;99.90
5344;DHT22;2694;48.954;8.928;2023-05-07T14:00:06;18.90;99.90
5344;DHT22;2694;48.954;8.928;2023-05-07T14:02:34;18.60;99.90
5344;DHT22;2694;48.954;8.928;2023-05-07T14:05:01;18.20;99.90
5344;DHT22;2694;48.954;8.928;2023-05-07T14:07:29;17.90;99.90
5344;DHT22;2694;48.954;8.928;2023-05-07T14:09:57;17.60;99.90
5344;DHT22;2694;48.954;8.928;2023-05-07T14:12:24;17.30;99.90
5344;DHT22;2694;48.954;8.928;2023-05-07T14:14:51;17.20;99.90
5344;DHT22;2694;48.954;8.928;2023-05-07T14:17:18;17.10;99.90
5344;DHT22;2694;48.954;8.928;2023-05-07T14:19:46;17.00;99.90
5344;DHT22;2694;48.954;8.928;2023-05-07T14:22:13;17.00;99.90
5344;DHT22;2694;48.954;8.928;2023-05-07T14:24:42;17.00;99.90
5344;DHT22;2694;48.954;8.928;2023-05-07T14:27:09;17.00;99.90
5344;DHT22;2694;48.954;8.928;2023-05-07T14:29:36;16.90;99.90
5344;DHT22;2694;48.954;8.928;2023-05-07T14:32:03;16.80;99.90
5344;DHT22;2694;48.954;8.928;2023-05-07T14:34:31;16.70;99.90
5344;DHT22;2694;48.954;8.928;2023-05-07T14:36:59;16.70;99.90
5344;DHT22;2694;48.954;8.928;2023-05-07T14:39:27;16.70;99.90
5344;DHT22;2694;48.954;8.928;2023-05-07T14:41:55;16.70;99.90
5344;DHT22;2694;48.954;8.928;2023-05-07T14:44:23;16.60;99.90
5344;DHT22;2694;48.954;8.928;2023-05-07T14:46:50;16.70;99.90
5344;DHT22;2694;48.954;8.928;2023-05-07T14:49:17;16.70;99.90
5344;DHT22;2694;48.954;8.928;2023-05-07T14:51:45;16.60;99.90
5344;DHT22;2694;48.954;8.928;2023-05-07T14:54:12;16.50;99.90
5344;DHT22;2694;48.954;8.928;2023-05-07T14:56:40;16.50;99.90
5344;DHT22;2694;48.954;8.928;2023-05-07T14:59:09;16.50;99.90
5344;DHT22;2694;48.954;8.928;2023-05-07T15:01:36;16.60;99.90
5344;DHT22;2694;48.954;8.928;2023-05-07T15:04:04;16.70;99.90
5344;DHT22;2694;48.954;8.928;2023-05-07T15:06:31;16.70;99.90
5344;DHT22;2694;48.954;8.928;2023-05-07T15:08:58;16.70;99.90
5344;DHT22;2694;48.954;8.928;2023-05-07T15:11:26;16.70;99.90
5344;DHT22;2694;48.954;8.928;2023-05-07T15:13:53;16.80;99.90
5344;DHT22;2694;48.954;8.928;2023-05-07T15:16:21;16.80;99.90
5344;DHT22;2694;48.954;8.928;2023-05-07T15:18:48;16.70;99.90
5344;DHT22;2694;48.954;8.928;2023-05-07T15:21:16;16.70;99.90
5344;DHT22;2694;48.954;8.928;2023-05-07T15:23:43;17.00;99.90
5344;DHT22;2694;48.954;8.928;2023-05-07T15:26:10;17.10;99.90
5344;DHT22;2694;48.954;8.928;2023-05-07T15:28:37;17.10;99.90
5344;DHT22;2694;48.954;8.928;2023-05-07T15:31:05;17.10;99.90
5344;DHT22;2694;48.954;8.928;2023-05-07T15:33:34;17.10;99.90
5344;DHT22;2694;48.954;8.928;2023-05-07T15:36:01;17.20;99.90
5344;DHT22;2694;48.954;8.928;2023-05-07T15:38:28;17.10;99.90
5344;DHT22;2694;48.954;8.928;2023-05-07T15:40:55;17.10;99.90
5344;DHT22;2694;48.954;8.928;2023-05-07T15:43:22;17.00;99.90
5344;DHT22;2694;48.954;8.928;2023-05-07T15:45:50;16.90;99.90
5344;DHT22;2694;48.954;8.928;2023-05-07T15:48:18;16.90;99.90
5344;DHT22;2694;48.954;8.928;2023-05-07T15:50:47;17.00;99.90
5344;DHT22;2694;48.954;8.928;2023-05-07T15:53:14;17.10;99.90
5344;DHT22;2694;48.954;8.928;2023-05-07T15:55:41;17.30;99.90
5344;DHT22;2694;48.954;8.928;2023-05-07T15:58:08;17.40;99.90
5344;DHT22;2694;48.954;8.928;2023-05-07T16:00:37;17.50;99.90
5344;DHT22;2694;48.954;8.928;2023-05-07T16:03:05;17.50;99.90
5344;DHT22;2694;48.954;8.928;2023-05-07T16:05:33;17.60;99.90
5344;DHT22;2694;48.954;8.928;2023-05-07T16:08:01;17.60;99.90
5344;DHT22;2694;48.954;8.928;2023-05-07T16:10:29;17.70;99.90